KCFV/CFV METAR and TAF weather

Enter ICAO airport designator
Station Type Date Time Source
KCFV METAR 2021/08/02 02:52 UTC NOAA

KCFV 020252Z AUTO 35005KT 7SM FEW050 21/17 A3010 RMK AO2 SLP189 T02110167 53014


Station Type Date Time Source
KCFV Decoded METAR 2021/08/02 02:52 UTC NOAA

COFFEYVILLE MUNICIPAL AIRPORT , KS, United States (KCFV) 37-05N 95-34W 225M
Aug 01, 2021 - 10:52 PM EDT / 2021.08.02 0252 UTC
Wind: from the N (350 degrees) at 6 MPH (5 KT):0
Visibility: 7 mile(s):0
Sky conditions: mostly clear
Temperature: 70.0 F (21.1 C)
Dew Point: 62.1 F (16.7 C)
Relative Humidity: 75%
Pressure (altimeter): 30.1 in. Hg (1019 hPa)
Pressure tendency: 0.04 inches (1.4 hPa) higher than three hours ago
ob: KCFV 020252Z AUTO 35005KT 7SM FEW050 21/17 A3010 RMK AO2 SLP189 T02110167 53014
cycle: 3

Station Type Date Time Source
KCFV TAF UTC NOAA

Error!

Example: see airport list